Bronx, NY

4:19 PM EST on December 07, 2016 (GMT -0500)
Bronx Community College | | Change Station

Elev 184 ft 40.86 °N, 73.91 °W | Updated 20 seconds ago

Overcast
Overcast
46.0 °F
Feels Like 46 °F
N
2.4
Wind Variable Wind from NW
Gusts 0.0 mph

Today
High -- | Low -- °F
--% Chance of Precip.
Yesterday
High -- | Low -- °F
Precip. -- in
Pressure 29.99 in
Visibility 10.0 miles
Clouds Overcast 4000 ft
Windchill 46 °F
Dew Point 44 °F
Humidity 91%
Rainfall 0.09 in
Snow Depth Not available.
7:06 AM 4:27 PM
First Quarter, 56% visible
METAR KLGA 072051Z 31007KT 10SM OVC040 08/04 A2998 RMK AO2 SLP153 T00830039 51008
Pressure 29.99 in
Visibility 10.0 miles
Clouds Overcast 4000 ft
Windchill 46 °F
Dew Point 44 °F
Humidity 91%
Rainfall 0.09 in
Snow Depth Not available.
7:06 AM 4:27 PM
First Quarter, 56% visible
METAR KLGA 072051Z 31007KT 10SM OVC040 08/04 A2998 RMK AO2 SLP153 T00830039 51008

10-Day Weather Forecast

Almanac

Astronomy

Dec. 07, 2016 Rise Set
Actual Time
Civil Twilight
Nautical Twilight
Astronomical Twilight
Moon
Length of Visible Light
Length of Day
Tomorrow will be .
, % of the Moon is Illuminated

Today's Extremes

State Highs State Lows

Community

WunderPhotos

Upload Photos

1,956,175 photos uploaded!

WunderBlog® & News

Nearby

Air Quality

  Air Quality AQ Index Pollutant
Not available.

Snow Depth

Station Depth Elevation

Earthquake Activity

City Distance Mag. Time & Date
Minimum magnitude displayed is 2.5.

Coastal Water Temperatures

Place Temperature

Stations

Nearby Weather Stations

Station Location Temp. Windchill Dew Point Humidity Wind Precip. Elev Updated Type
                   

Watches & Warnings

There are currently no watches in effect.